Time;durP1;ratioP1;P1;durP2;ratioP2;P2;SDS_P1;SDS_P2;PMS_P1;PMS_P2;Temp;Humidity;BMP_temperature;BMP_pressure;BME280_temperature;BME280_humidity;BME280_pressure;Samples;Min_cycle;Max_cycle;Signal;HPM_P1;HPM_P2
2023/01/28 00:01:16;;;;;;;19.33;8.18;;;;;;;2.93;80.67;102326.72;5019737;28;20049;-53
2023/01/28 00:03:43;;;;;;;16.48;7.85;;;;;;;2.87;80.52;102322.59;5051079;28;20130;-53
2023/01/28 00:06:13;;;;;;;14.05;7.50;;;;;;;2.93;80.68;102310.97;5036742;28;20045;-53
2023/01/28 00:08:40;;;;;;;16.25;7.78;;;;;;;2.99;80.82;102315.94;5042660;28;20049;-52
2023/01/28 00:11:10;;;;;;;14.80;7.32;;;;;;;3.00;80.56;102309.81;5034802;28;20050;-52
2023/01/28 00:13:37;;;;;;;12.95;7.93;;;;;;;3.07;80.42;102315.59;5034833;28;20084;-52
2023/01/28 00:16:07;;;;;;;14.50;8.40;;;;;;;3.38;79.62;102319.50;5027734;28;20076;-51
2023/01/28 00:18:34;;;;;;;14.38;8.27;;;;;;;3.28;79.92;102308.56;5036555;28;20093;-53
2023/01/28 00:21:05;;;;;;;15.52;8.25;;;;;;;3.21;80.06;102309.78;5039977;28;20471;-56
2023/01/28 00:23:35;;;;;;;16.42;9.45;;;;;;;3.15;80.26;102313.50;5034615;28;20053;-61
2023/01/28 00:26:04;;;;;;;15.82;9.40;;;;;;;3.11;80.46;102306.72;5033608;28;20115;-57
2023/01/28 00:28:32;;;;;;;17.30;9.70;;;;;;;3.19;80.80;102303.75;5034703;28;20060;-54
2023/01/28 00:31:06;;;;;;;19.02;10.18;;;;;;;3.11;79.53;102292.72;5028745;28;20132;-55
2023/01/28 00:33:35;;;;;;;17.50;9.77;;;;;;;3.14;80.25;102297.84;5034598;28;20091;-52
2023/01/28 00:36:03;;;;;;;17.65;9.57;;;;;;;2.80;81.06;102294.06;5035044;28;20049;-51
2023/01/28 00:38:29;;;;;;;18.77;10.40;;;;;;;2.66;81.53;102284.19;5043968;28;20056;-53
2023/01/28 00:41:07;;;;;;;16.25;9.55;;;;;;;2.89;81.48;102293.66;5034320;28;20127;-52
2023/01/28 00:43:34;;;;;;;18.83;10.77;;;;;;;2.94;80.96;102296.94;5039431;28;20128;-53
2023/01/28 00:46:03;;;;;;;17.92;10.57;;;;;;;2.84;81.88;102300.91;5023080;28;20042;-52
2023/01/28 00:48:29;;;;;;;16.95;10.30;;;;;;;2.87;81.70;102305.97;5024351;28;20510;-54
2023/01/28 00:50:56;;;;;;;18.92;10.30;;;;;;;2.95;81.54;102303.91;5034225;28;20144;-53
2023/01/28 00:53:23;;;;;;;17.15;10.23;;;;;;;2.97;80.91;102307.31;5033957;28;20128;-53
2023/01/28 00:55:49;;;;;;;21.58;11.30;;;;;;;2.95;81.40;102303.91;5034404;28;20079;-52
2023/01/28 00:58:16;;;;;;;16.63;9.70;;;;;;;2.92;81.09;102306.66;5033913;28;20056;-53
2023/01/28 01:00:44;;;;;;;20.35;10.32;;;;;;;2.97;80.45;102296.81;5024727;28;20107;-52
2023/01/28 01:03:11;;;;;;;17.38;10.25;;;;;;;2.92;81.39;102300.56;5023573;28;20403;-53
2023/01/28 01:05:38;;;;;;;15.98;9.95;;;;;;;2.80;81.02;102299.28;5033963;28;20076;-53
2023/01/28 01:08:07;;;;;;;17.20;9.63;;;;;;;2.70;81.34;102304.09;5043909;28;20041;-53
2023/01/28 01:10:37;;;;;;;17.02;9.88;;;;;;;2.80;81.30;102305.41;5033304;28;20064;-53
2023/01/28 01:13:05;;;;;;;18.17;9.50;;;;;;;2.87;80.25;102316.47;5033623;28;20490;-51
2023/01/28 01:15:34;;;;;;;20.20;9.43;;;;;;;2.50;81.21;102313.63;5033688;28;20050;-53
2023/01/28 01:18:02;;;;;;;17.23;8.93;;;;;;;2.42;82.18;102320.97;5016598;28;20122;-54
2023/01/28 01:20:32;;;;;;;15.85;8.20;;;;;;;2.46;81.62;102317.28;5040739;28;20044;-52
2023/01/28 01:22:59;;;;;;;15.50;9.30;;;;;;;2.39;81.29;102313.22;5038633;28;20049;-53
2023/01/28 01:25:25;;;;;;;16.92;9.30;;;;;;;2.42;82.02;102307.00;5033085;28;20431;-53
2023/01/28 01:27:52;;;;;;;17.95;8.90;;;;;;;2.57;81.47;102311.63;5029854;28;20052;-52
2023/01/28 01:30:19;;;;;;;16.13;8.65;;;;;;;2.64;82.22;102309.59;5033391;28;20447;-53
2023/01/28 01:32:47;;;;;;;15.27;9.00;;;;;;;2.67;80.77;102302.47;5029125;28;20068;-52
2023/01/28 01:35:14;;;;;;;17.08;9.98;;;;;;;2.72;81.62;102304.88;5037001;28;20099;-53
2023/01/28 01:37:43;;;;;;;17.08;9.07;;;;;;;2.63;81.75;102305.25;5037983;28;20495;-53
2023/01/28 01:40:11;;;;;;;16.40;8.65;;;;;;;2.48;80.92;102312.00;5033841;28;20483;-54
2023/01/28 01:42:37;;;;;;;19.20;8.65;;;;;;;2.61;81.03;102300.09;5032499;28;20438;-53
2023/01/28 01:45:11;;;;;;;16.08;8.93;;;;;;;2.62;80.25;102295.69;5036009;28;20045;-51
2023/01/28 01:48:02;;;;;;;16.65;8.57;;;;;;;2.58;79.99;102310.69;5035121;28;20053;-53
2023/01/28 01:50:41;;;;;;;17.05;9.27;;;;;;;2.61;80.75;102312.34;5032550;28;20037;-53
2023/01/28 01:53:12;;;;;;;14.35;7.85;;;;;;;2.54;80.15;102305.66;5033138;28;20049;-53
2023/01/28 01:55:44;;;;;;;16.25;8.55;;;;;;;2.52;80.79;102310.09;5033108;28;20038;-52
2023/01/28 01:58:15;;;;;;;14.95;8.10;;;;;;;2.45;80.99;102312.13;5027525;28;20053;-53
2023/01/28 02:00:41;;;;;;;14.57;7.80;;;;;;;2.39;81.14;102315.00;5040013;28;20060;-53
2023/01/28 02:03:09;;;;;;;16.30;9.05;;;;;;;2.38;80.89;102318.50;5015709;28;20087;-51
2023/01/28 02:05:38;;;;;;;14.68;7.97;;;;;;;2.51;81.26;102317.13;5031555;28;20037;-53
2023/01/28 02:08:20;;;;;;;13.82;8.43;;;;;;;2.50;80.58;102326.72;5043185;28;20095;-53
2023/01/28 02:11:02;;;;;;;16.33;7.82;;;;;;;2.44;80.81;102316.50;5038661;28;20049;-51
2023/01/28 02:13:38;;;;;;;15.55;7.40;;;;;;;2.38;79.87;102319.34;5034109;28;20509;-51
2023/01/28 02:16:07;;;;;;;13.00;7.32;;;;;;;2.44;79.72;102324.38;5032831;28;20053;-54
2023/01/28 02:18:34;;;;;;;12.85;7.45;;;;;;;2.59;80.29;102327.28;5024523;28;20072;-53
2023/01/28 02:24:40;;;;;;;13.18;7.45;;;;;;;2.57;79.57;102326.50;5102972;27;20369;-52
2023/01/28 02:27:32;;;;;;;11.77;6.93;;;;;;;2.59;79.44;102316.78;5089921;28;20055;-51
2023/01/28 02:30:21;;;;;;;13.30;7.17;;;;;;;2.66;78.66;102319.09;5082448;28;20063;-49
2023/01/28 02:32:59;;;;;;;12.35;7.13;;;;;;;2.60;78.36;102332.47;5089660;28;20036;-50
2023/01/28 02:35:48;;;;;;;12.75;7.20;;;;;;;2.42;79.05;102341.03;5074699;28;20055;-50
2023/01/28 02:38:21;;;;;;;13.50;7.07;;;;;;;2.50;79.24;102336.34;5090934;28;20514;-55
2023/01/28 02:41:05;;;;;;;12.13;7.32;;;;;;;2.49;79.38;102338.13;5090028;28;20051;-51
2023/01/28 02:43:38;;;;;;;14.10;7.40;;;;;;;2.53;79.30;102343.22;5089434;28;20084;-53
2023/01/28 02:49:09;;;;;;;15.40;8.38;;;;;;;2.46;80.32;102340.88;5060942;28;20459;-54
2023/01/28 02:54:51;;;;;;;16.13;8.90;;;;;;;2.32;79.63;102345.81;5110693;27;20347;-53
2023/01/28 02:57:46;;;;;;;17.52;10.65;;;;;;;2.41;78.91;102349.84;5080260;28;20045;-52
2023/01/28 03:00:21;;;;;;;18.95;11.23;;;;;;;2.14;79.64;102357.84;5089801;28;20494;-52
2023/01/28 03:03:14;;;;;;;19.27;11.40;;;;;;;2.26;79.20;102354.75;5085756;28;20036;-51
2023/01/28 03:06:05;;;;;;;19.65;11.20;;;;;;;2.16;78.70;102357.81;5081804;28;20047;-51
2023/01/28 03:36:55;;;;;;;22.58;12.23;;;;;;;1.89;79.76;102355.31;5091412;28;20047;-51
2023/01/28 03:39:41;;;;;;;24.52;13.00;;;;;;;1.88;80.48;102344.00;5109660;28;20476;-53
2023/01/28 03:42:13;;;;;;;27.35;12.90;;;;;;;1.88;80.09;102354.47;5106083;28;20043;-51
2023/01/28 03:44:54;;;;;;;25.30;13.13;;;;;;;1.89;79.55;102352.72;5109886;28;20127;-51
2023/01/28 03:47:25;;;;;;;26.63;12.68;;;;;;;1.90;79.56;102350.03;5109635;28;20077;-53
2023/01/28 03:49:55;;;;;;;23.55;13.10;;;;;;;1.98;79.56;102357.59;5089450;28;20044;-52
2023/01/28 03:52:24;;;;;;;23.50;12.70;;;;;;;1.87;78.63;102355.41;5089007;28;20563;-51
2023/01/28 03:54:53;;;;;;;27.80;13.65;;;;;;;1.91;78.65;102359.63;5089294;28;20050;-52
2023/01/28 03:57:23;;;;;;;24.50;13.45;;;;;;;1.82;78.25;102367.81;5094848;28;20048;-53
2023/01/28 03:59:51;;;;;;;26.48;12.73;;;;;;;1.76;78.31;102365.41;5088445;28;20032;-52
2023/01/28 04:02:20;;;;;;;25.13;12.65;;;;;;;1.84;78.52;102367.75;5089152;28;20401;-52
2023/01/28 04:04:49;;;;;;;24.83;12.55;;;;;;;1.96;78.58;102366.44;5064633;28;20056;-51
2023/01/28 04:07:17;;;;;;;24.80;13.45;;;;;;;2.07;79.18;102370.34;5086350;28;20072;-51
2023/01/28 04:10:04;;;;;;;23.30;12.52;;;;;;;2.13;77.51;102371.00;5095174;28;20044;-51
2023/01/28 04:12:53;;;;;;;23.08;11.82;;;;;;;2.10;76.36;102364.13;5094979;28;20445;-51
2023/01/28 04:15:19;;;;;;;23.67;12.05;;;;;;;1.96;77.35;102369.88;5094651;28;20101;-53
2023/01/28 04:17:48;;;;;;;21.80;11.80;;;;;;;2.01;77.05;102369.72;5075310;28;20044;-52
2023/01/28 04:20:27;;;;;;;23.77;11.50;;;;;;;1.87;76.32;102372.84;5061773;28;20127;-52
2023/01/28 04:22:57;;;;;;;23.75;11.57;;;;;;;1.90;76.64;102370.97;5076274;28;20071;-52
2023/01/28 04:25:23;;;;;;;23.30;12.07;;;;;;;1.92;76.85;102371.78;5092570;28;20044;-52
2023/01/28 04:27:50;;;;;;;22.95;12.27;;;;;;;1.97;76.90;102382.09;5079181;28;20040;-50
2023/01/28 04:30:21;;;;;;;25.02;12.05;;;;;;;1.89;76.20;102386.75;5086036;28;20061;-52
2023/01/28 04:33:03;;;;;;;25.25;11.43;;;;;;;1.80;76.41;102379.22;5074898;28;20048;-54
2023/01/28 04:35:38;;;;;;;21.95;12.07;;;;;;;1.90;76.96;102389.31;5075510;28;20055;-52
2023/01/28 04:38:09;;;;;;;;;;;;;;;1.90;76.49;102393.69;5084478;28;20495;-52
2023/01/28 04:40:50;;;;;;;20.95;10.52;;;;;;;1.77;76.23;102390.69;5095234;28;20007;-51
2023/01/28 04:43:32;;;;;;;22.42;10.98;;;;;;;1.83;76.40;102395.69;5075494;28;20059;-52
2023/01/28 04:46:19;;;;;;;21.45;11.73;;;;;;;1.94;76.76;102400.50;5083895;28;20052;-52
2023/01/28 04:48:54;;;;;;;25.92;11.18;;;;;;;1.87;76.15;102393.78;5095021;28;20051;-51
2023/01/28 04:51:41;;;;;;;20.25;10.93;;;;;;;1.80;76.37;102393.19;5080762;28;20048;-51
2023/01/28 04:54:28;;;;;;;21.50;11.43;;;;;;;1.80;76.70;102384.47;5084271;28;20497;-52
2023/01/28 04:56:58;;;;;;;19.02;10.35;;;;;;;1.79;74.57;102388.00;5084482;28;20052;-52
2023/01/28 04:59:25;;;;;;;20.38;10.68;;;;;;;1.88;74.96;102391.13;5092143;28;20093;-52
2023/01/28 05:01:51;;;;;;;24.88;11.25;;;;;;;1.85;74.66;102398.25;5094795;28;20040;-51
2023/01/28 05:04:18;;;;;;;19.55;10.25;;;;;;;1.77;74.89;102398.53;5093339;28;20047;-49
2023/01/28 05:06:45;;;;;;;20.08;11.13;;;;;;;1.78;74.81;102389.75;5057056;28;20059;-51
2023/01/28 05:09:15;;;;;;;22.55;11.63;;;;;;;1.82;74.81;102388.75;5090688;28;20127;-52
2023/01/28 05:11:43;;;;;;;20.30;11.63;;;;;;;1.80;73.97;102400.16;5094363;28;20467;-52
2023/01/28 05:14:09;;;;;;;20.73;10.70;;;;;;;1.92;73.97;102395.31;5086540;28;20097;-52
2023/01/28 05:16:43;;;;;;;19.05;10.45;;;;;;;1.88;73.57;102392.91;5073085;28;20055;-50
2023/01/28 05:19:11;;;;;;;21.67;11.40;;;;;;;1.71;73.62;102390.88;5089378;28;20055;-52
2023/01/28 05:21:40;;;;;;;20.08;10.95;;;;;;;1.82;74.04;102388.75;5055545;28;20041;-51
2023/01/28 05:24:16;;;;;;;20.02;10.73;;;;;;;1.95;74.22;102391.75;5073974;28;20490;-51
2023/01/28 05:26:43;;;;;;;20.90;11.20;;;;;;;1.91;73.17;102395.38;5069245;28;20498;-52
2023/01/28 05:29:10;;;;;;;18.98;10.05;;;;;;;1.96;71.82;102397.84;5073793;28;20048;-51
2023/01/28 05:31:38;;;;;;;19.15;10.80;;;;;;;2.00;73.17;102386.34;5073986;28;21334;-51
2023/01/28 05:34:04;;;;;;;20.98;10.85;;;;;;;2.06;72.68;102396.59;5080830;28;20040;-52
2023/01/28 05:36:31;;;;;;;19.83;11.18;;;;;;;2.10;72.76;102392.94;5077553;28;20043;-50
2023/01/28 05:39:05;;;;;;;19.42;10.55;;;;;;;2.03;72.42;102397.53;5094133;28;20048;-50
2023/01/28 05:41:32;;;;;;;21.75;11.32;;;;;;;2.08;72.61;102398.22;5085839;28;20041;-50
2023/01/28 05:44:01;;;;;;;20.23;9.90;;;;;;;1.80;71.96;102397.56;5087062;28;20086;-51
2023/01/28 05:46:47;;;;;;;20.15;10.75;;;;;;;1.87;73.32;102414.72;5072822;28;20047;-51
2023/01/28 05:49:34;;;;;;;18.73;10.38;;;;;;;1.86;72.27;102398.19;5092704;28;20509;-50
2023/01/28 05:52:18;;;;;;;20.50;11.20;;;;;;;1.84;72.24;102407.03;5079937;28;20056;-50
2023/01/28 05:54:45;;;;;;;20.23;11.55;;;;;;;1.62;72.62;102410.41;5080739;28;20051;-50
2023/01/28 05:57:12;;;;;;;18.48;9.98;;;;;;;1.59;71.66;102413.13;5077644;28;20044;-50
2023/01/28 05:59:38;;;;;;;23.08;11.15;;;;;;;1.64;71.70;102424.28;5073827;28;20048;-52
2023/01/28 06:02:05;;;;;;;25.80;12.10;;;;;;;1.61;73.51;102419.16;5093282;28;20398;-51
2023/01/28 06:04:32;;;;;;;20.85;11.25;;;;;;;1.75;72.62;102423.91;5093132;28;20046;-50
2023/01/28 06:06:59;;;;;;;22.40;12.23;;;;;;;1.84;72.03;102428.78;5065498;28;20127;-51
2023/01/28 06:09:26;;;;;;;24.95;12.70;;;;;;;1.83;71.80;102436.69;5074879;28;20094;-50
2023/01/28 06:11:53;;;;;;;25.35;13.05;;;;;;;1.80;70.82;102435.06;5087946;28;20135;-52
2023/01/28 06:14:19;;;;;;;23.98;12.15;;;;;;;1.70;71.61;102421.44;5087753;28;20230;-51
2023/01/28 06:17:02;;;;;;;33.20;14.25;;;;;;;1.59;72.18;102430.59;5083467;28;20135;-52
2023/01/28 06:19:44;;;;;;;32.78;14.00;;;;;;;1.44;71.85;102435.47;5057416;28;20050;-52
2023/01/28 06:22:11;;;;;;;21.63;11.35;;;;;;;1.46;71.08;102432.78;5065476;28;20049;-52
2023/01/28 06:24:38;;;;;;;26.13;13.55;;;;;;;1.27;70.65;102427.31;5084494;28;20040;-50
2023/01/28 06:27:04;;;;;;;26.70;14.18;;;;;;;1.34;70.82;102431.44;5076971;28;20402;-50
2023/01/28 06:29:31;;;;;;;28.10;14.82;;;;;;;1.38;71.19;102427.81;5091366;28;20130;-50
2023/01/28 06:31:58;;;;;;;34.28;14.20;;;;;;;1.29;71.90;102420.28;5086722;28;20036;-52
2023/01/28 06:34:24;;;;;;;32.83;15.73;;;;;;;1.39;72.01;102436.53;5082185;28;20393;-51
2023/01/28 06:36:52;;;;;;;33.60;15.20;;;;;;;1.52;71.87;102433.41;5085238;28;20048;-51
2023/01/28 06:39:20;;;;;;;36.47;16.15;;;;;;;1.56;72.17;102422.84;5075539;28;20049;-51
2023/01/28 06:41:48;;;;;;;35.03;16.02;;;;;;;1.54;71.46;102426.34;5072887;28;20048;-49
2023/01/28 06:44:15;;;;;;;39.80;16.60;;;;;;;1.39;71.30;102429.53;5086559;28;20040;-50
2023/01/28 06:46:42;;;;;;;34.10;16.20;;;;;;;1.36;71.85;102439.25;5092797;28;20075;-50
2023/01/28 06:49:09;;;;;;;33.05;16.13;;;;;;;1.37;71.51;102440.97;5085794;28;20465;-50
2023/01/28 06:51:35;;;;;;;33.22;16.35;;;;;;;1.32;71.02;102436.72;5076944;28;20391;-51
2023/01/28 06:54:03;;;;;;;33.45;16.30;;;;;;;1.41;71.42;102438.16;5072038;28;20081;-52
2023/01/28 06:56:30;;;;;;;35.45;16.75;;;;;;;1.18;71.28;102448.56;5076869;28;20412;-56
2023/01/28 06:58:57;;;;;;;38.22;16.58;;;;;;;1.25;71.70;102434.38;5087185;28;20555;-52
2023/01/28 07:01:23;;;;;;;38.97;17.25;;;;;;;1.25;71.80;102431.75;5091402;28;20159;-50
2023/01/28 07:03:50;;;;;;;37.78;17.20;;;;;;;1.28;71.47;102431.66;5077571;28;20071;-53
2023/01/28 07:06:17;;;;;;;39.30;17.95;;;;;;;1.34;72.03;102434.06;5071468;28;20100;-50
2023/01/28 07:08:44;;;;;;;39.85;17.60;;;;;;;1.35;71.99;102433.16;5062196;28;20490;-52
2023/01/28 07:11:10;;;;;;;34.83;17.20;;;;;;;1.49;71.37;102437.88;5072312;28;20059;-51
2023/01/28 07:13:37;;;;;;;36.08;17.33;;;;;;;1.57;71.57;102440.25;5085109;28;20037;-51
2023/01/28 07:16:04;;;;;;;37.13;16.98;;;;;;;1.62;69.99;102427.84;5079053;28;20040;-50
2023/01/28 07:18:31;;;;;;;35.58;16.83;;;;;;;1.66;70.38;102437.31;5081561;28;20074;-50
2023/01/28 07:20:58;;;;;;;38.88;17.13;;;;;;;1.73;70.53;102428.34;5069606;28;20063;-51
2023/01/28 07:23:24;;;;;;;37.97;17.95;;;;;;;1.83;69.60;102431.47;5063561;28;20486;-51
2023/01/28 07:25:54;;;;;;;33.53;16.90;;;;;;;1.84;70.00;102430.56;5067340;28;20096;-52
2023/01/28 07:28:22;;;;;;;38.95;16.70;;;;;;;1.90;70.32;102438.19;5076359;28;20079;-52
2023/01/28 07:30:50;;;;;;;34.47;16.83;;;;;;;1.71;69.73;102443.22;5085157;28;20036;-51
2023/01/28 07:33:19;;;;;;;29.17;15.88;;;;;;;1.71;69.62;102443.22;5092000;28;20124;-52
2023/01/28 07:35:46;;;;;;;38.55;18.38;;;;;;;1.79;69.56;102445.59;5087871;28;20063;-52
2023/01/28 07:38:14;;;;;;;35.28;16.65;;;;;;;1.64;69.82;102444.38;5068898;28;20148;-51
2023/01/28 07:40:42;;;;;;;35.55;17.70;;;;;;;1.58;68.97;102439.34;5075628;28;20057;-52
2023/01/28 07:43:09;;;;;;;35.35;16.65;;;;;;;1.52;69.66;102438.63;5077219;28;20055;-52
2023/01/28 07:45:39;;;;;;;33.97;16.52;;;;;;;1.39;70.22;102437.38;5063176;28;20044;-52
2023/01/28 07:48:08;;;;;;;36.72;17.23;;;;;;;1.48;70.15;102449.28;5095801;28;20048;-52
2023/01/28 07:50:36;;;;;;;34.60;17.90;;;;;;;1.58;70.52;102439.34;5095819;28;20052;-51
2023/01/28 07:53:07;;;;;;;32.85;16.77;;;;;;;1.74;70.54;102440.50;5060387;28;20506;-53
2023/01/28 07:55:35;;;;;;;35.90;17.33;;;;;;;1.52;69.81;102451.72;5075018;28;20429;-51
2023/01/28 07:58:05;;;;;;;32.92;16.02;;;;;;;1.56;69.25;102444.63;5083929;28;20044;-52
2023/01/28 08:00:34;;;;;;;34.10;16.92;;;;;;;1.51;70.28;102438.69;5084445;28;20045;-52
2023/01/28 08:03:05;;;;;;;34.00;17.02;;;;;;;1.68;70.07;102446.81;5075164;28;20127;-52
2023/01/28 08:05:40;;;;;;;41.83;17.13;;;;;;;1.75;69.47;102444.84;5075706;28;20041;-53
2023/01/28 08:08:08;;;;;;;30.48;15.90;;;;;;;1.75;68.54;102459.66;5064148;28;20084;-53
2023/01/28 08:10:36;;;;;;;29.42;15.25;;;;;;;1.73;68.48;102459.75;5075418;28;20041;-51
2023/01/28 08:13:03;;;;;;;25.73;14.52;;;;;;;1.89;68.30;102466.13;5073850;28;20055;-51
2023/01/28 08:15:30;;;;;;;30.65;15.75;;;;;;;1.83;68.51;102462.88;5074924;28;20037;-50
2023/01/28 08:17:59;;;;;;;30.13;15.65;;;;;;;1.75;67.89;102481.47;5075534;28;20044;-50
2023/01/28 08:20:27;;;;;;;28.85;16.60;;;;;;;1.75;68.74;102481.47;5085083;28;20097;-51
2023/01/28 08:23:12;;;;;;;35.25;16.13;;;;;;;1.84;67.95;102482.91;5073051;28;20441;-50
2023/01/28 08:25:38;;;;;;;25.75;14.95;;;;;;;1.78;68.17;102491.81;5072236;28;20052;-50
2023/01/28 08:28:06;;;;;;;27.88;15.80;;;;;;;1.83;68.02;102489.88;5081318;28;20450;-50
2023/01/28 08:30:33;;;;;;;26.63;15.13;;;;;;;1.74;68.50;102500.69;5083731;28;20044;-52
2023/01/28 08:33:00;;;;;;;27.33;14.90;;;;;;;1.57;67.54;102485.59;5089658;28;20127;-50
2023/01/28 08:35:28;;;;;;;31.52;14.95;;;;;;;1.71;68.20;102499.03;5077997;28;20049;-50
2023/01/28 08:37:58;;;;;;;28.77;15.00;;;;;;;1.75;69.07;102507.63;5081663;28;20052;-51
2023/01/28 08:40:25;;;;;;;27.83;14.68;;;;;;;1.76;67.87;102498.03;5074679;28;20049;-50
2023/01/28 08:42:53;;;;;;;26.77;13.65;;;;;;;1.69;67.40;102494.75;5077532;28;20106;-49
2023/01/28 08:45:23;;;;;;;23.90;13.27;;;;;;;1.76;67.86;102509.31;5075268;28;20057;-52
2023/01/28 08:47:56;;;;;;;21.75;13.32;;;;;;;1.59;67.69;102509.06;5090043;28;20075;-50
2023/01/28 08:50:25;;;;;;;24.38;13.35;;;;;;;1.66;68.31;102493.09;5084029;28;20378;-52
2023/01/28 08:52:57;;;;;;;23.15;13.27;;;;;;;1.65;66.72;102509.69;5072893;28;20079;-52
2023/01/28 08:55:25;;;;;;;24.58;13.75;;;;;;;1.80;67.60;102513.56;5075354;28;20422;-52
2023/01/28 08:57:52;;;;;;;23.48;12.90;;;;;;;1.56;67.13;102523.09;5086089;28;20044;-50
2023/01/28 09:00:20;;;;;;;23.88;12.73;;;;;;;1.61;67.67;102521.19;5073568;28;20048;-50
2023/01/28 09:02:49;;;;;;;23.98;12.40;;;;;;;1.63;67.57;102523.75;5087254;28;20093;-51
2023/01/28 09:05:16;;;;;;;23.83;13.02;;;;;;;1.52;66.87;102542.44;5086497;28;20048;-50
2023/01/28 09:07:42;;;;;;;22.77;12.48;;;;;;;1.58;66.86;102547.44;5076623;28;20056;-50
2023/01/28 09:10:10;;;;;;;24.42;12.02;;;;;;;1.53;67.32;102542.38;5057202;28;20040;-49
2023/01/28 09:12:36;;;;;;;27.42;13.57;;;;;;;1.58;66.54;102554.44;5065757;28;20072;-52
2023/01/28 09:15:04;;;;;;;22.42;13.38;;;;;;;1.45;67.00;102556.63;5063263;28;20464;-54
2023/01/28 09:17:31;;;;;;;22.05;12.55;;;;;;;1.32;66.79;102566.63;5074238;28;20048;-53
2023/01/28 09:19:57;;;;;;;26.15;14.25;;;;;;;1.23;67.35;102564.31;5073601;28;20044;-52
2023/01/28 09:22:24;;;;;;;26.60;14.32;;;;;;;1.20;67.26;102573.13;5073276;28;20375;-53
2023/01/28 09:24:51;;;;;;;24.42;13.07;;;;;;;1.13;67.20;102566.38;5070030;28;20044;-55
2023/01/28 09:27:18;;;;;;;28.58;15.70;;;;;;;1.20;67.24;102577.47;5074270;28;20054;-51
2023/01/28 09:29:44;;;;;;;30.88;16.50;;;;;;;1.41;67.59;102570.72;5073280;28;20435;-50
2023/01/28 09:32:11;;;;;;;28.05;15.45;;;;;;;1.35;66.20;102574.38;5072556;28;20040;-52
2023/01/28 09:34:38;;;;;;;29.23;15.63;;;;;;;1.42;66.53;102575.88;5073180;28;20508;-50
2023/01/28 09:37:04;;;;;;;25.60;13.95;;;;;;;1.56;66.45;102570.19;5071870;28;20497;-52
2023/01/28 09:39:31;;;;;;;23.48;13.45;;;;;;;1.45;66.44;102556.63;5073149;28;20044;-53
2023/01/28 09:42:38;;;;;;;23.65;14.23;;;;;;;1.47;65.97;102560.88;5074877;28;20094;-52
2023/01/28 09:45:30;;;;;;;24.35;13.98;;;;;;;1.54;66.42;102578.06;5070540;28;20079;-50
2023/01/28 09:48:00;;;;;;;27.33;13.32;;;;;;;1.44;66.17;102575.84;5071841;28;20402;-52
2023/01/28 09:50:38;;;;;;;28.60;13.93;;;;;;;1.67;65.59;102570.72;5072166;28;20136;-51
2023/01/28 09:53:12;;;;;;;25.85;14.57;;;;;;;1.65;66.55;102580.34;5073842;28;20052;-52
2023/01/28 09:55:44;;;;;;;25.08;13.73;;;;;;;1.62;65.02;102577.84;5087607;28;20119;-50
2023/01/28 09:58:14;;;;;;;29.95;13.57;;;;;;;1.69;65.18;102589.81;5061232;28;20052;-51
2023/01/28 10:01:13;;;;;;;25.20;14.43;;;;;;;1.72;64.73;102575.78;5071509;28;20040;-51
2023/01/28 10:04:09;;;;;;;23.95;14.57;;;;;;;1.87;65.03;102590.09;5070374;28;20397;-50
2023/01/28 10:10:08;;;;;;;24.98;13.68;;;;;;;1.94;65.70;102583.75;5055244;28;20403;-50
2023/01/28 10:12:50;;;;;;;23.88;14.18;;;;;;;1.96;65.39;102574.06;5051717;28;20409;-52
2023/01/28 10:15:57;;;;;;;26.52;14.13;;;;;;;1.81;64.86;102567.59;5063535;28;20053;-51
2023/01/28 10:18:33;;;;;;;28.63;14.70;;;;;;;1.65;65.27;102564.63;5070574;28;20119;-50
2023/01/28 10:21:08;;;;;;;31.17;15.25;;;;;;;1.64;66.12;102568.19;5064555;28;20487;-50
2023/01/28 10:26:23;;;;;;;27.02;15.00;;;;;;;1.89;65.96;102573.44;5089560;27;20901;-49
2023/01/28 10:28:57;;;;;;;24.27;14.05;;;;;;;2.04;66.24;102574.66;5090730;28;20045;-52
2023/01/28 10:31:31;;;;;;;25.17;14.43;;;;;;;1.96;65.24;102570.59;5089447;28;20043;-51
2023/01/28 10:33:58;;;;;;;24.55;14.48;;;;;;;2.14;66.05;102564.72;5087471;28;20044;-52
2023/01/28 10:36:25;;;;;;;27.85;14.98;;;;;;;2.29;64.94;102568.53;5089772;28;20096;-53
2023/01/28 10:38:52;;;;;;;25.15;13.88;;;;;;;2.38;64.35;102551.63;5091436;28;20559;-53
2023/01/28 10:41:21;;;;;;;22.75;14.23;;;;;;;2.05;65.22;102557.19;5080036;28;20040;-54
2023/01/28 10:43:49;;;;;;;28.55;14.85;;;;;;;2.16;65.39;102559.44;5086506;28;20049;-52
2023/01/28 10:46:22;;;;;;;23.45;14.60;;;;;;;2.39;65.16;102561.22;5085749;28;20040;-52
2023/01/28 10:48:58;;;;;;;25.10;15.60;;;;;;;2.22;64.73;102562.69;5089501;28;20052;-52
2023/01/28 10:51:42;;;;;;;24.58;14.40;;;;;;;2.08;63.82;102570.19;5089946;28;20106;-52
2023/01/28 10:54:19;;;;;;;24.55;14.77;;;;;;;2.27;63.91;102570.34;5090232;28;20474;-52
2023/01/28 10:56:49;;;;;;;28.27;15.80;;;;;;;2.25;63.85;102564.31;5090206;28;20059;-51
2023/01/28 10:59:21;;;;;;;30.42;15.35;;;;;;;2.34;64.12;102574.47;5089633;28;20489;-52
2023/01/28 11:01:51;;;;;;;29.05;17.45;;;;;;;2.50;64.37;102577.38;5090313;28;20044;-52
2023/01/28 11:04:24;;;;;;;23.90;15.32;;;;;;;2.61;63.30;102572.59;5089161;28;20494;-53
2023/01/28 11:07:03;;;;;;;26.98;15.93;;;;;;;2.71;64.42;102578.38;5095733;28;20048;-51
2023/01/28 11:09:34;;;;;;;23.95;15.75;;;;;;;2.82;63.53;102580.53;5110252;28;20127;-52
2023/01/28 11:12:21;;;;;;;23.52;14.25;;;;;;;2.60;63.19;102576.16;5110536;28;20101;-51
2023/01/28 11:14:50;;;;;;;25.10;15.40;;;;;;;2.47;63.07;102594.09;5085660;28;20599;-49
2023/01/28 11:17:18;;;;;;;27.73;15.48;;;;;;;2.44;63.32;102588.94;5088562;28;20052;-50
2023/01/28 11:19:45;;;;;;;24.70;15.82;;;;;;;2.34;64.30;102591.97;5089070;28;20052;-51
2023/01/28 11:22:36;;;;;;;23.88;14.85;;;;;;;2.01;63.21;102597.47;5089657;28;20102;-52
2023/01/28 11:25:15;;;;;;;24.57;15.30;;;;;;;2.14;63.97;102595.28;5089229;28;20052;-53
2023/01/28 11:27:48;;;;;;;23.58;14.25;;;;;;;2.02;63.45;102592.19;5088767;28;20486;-52
2023/01/28 11:30:21;;;;;;;23.60;14.68;;;;;;;2.09;63.19;102593.69;5089131;28;20040;-52
2023/01/28 11:33:16;;;;;;;26.52;15.75;;;;;;;2.01;63.92;102584.38;5088633;28;20029;-52
2023/01/28 11:36:05;;;;;;;28.90;14.80;;;;;;;2.09;64.47;102596.31;5086128;28;20040;-52
2023/01/28 11:38:32;;;;;;;23.92;14.75;;;;;;;1.94;64.94;102588.13;5055780;28;20049;-52
2023/01/28 11:41:00;;;;;;;25.20;15.40;;;;;;;1.81;65.09;102577.22;5055751;28;20049;-51
2023/01/28 11:43:29;;;;;;;29.08;16.52;;;;;;;1.92;64.77;102575.94;5055826;28;20099;-51
2023/01/28 11:49:33;;;;;;;27.67;15.70;;;;;;;1.67;65.09;102575.06;5111289;27;20869;-50
2023/01/28 11:52:26;;;;;;;27.67;16.35;;;;;;;1.66;66.15;102566.38;5110751;28;20048;-51
2023/01/28 11:55:21;;;;;;;28.65;16.50;;;;;;;1.76;64.75;102572.13;5111215;28;20047;-52
2023/01/28 11:58:13;;;;;;;28.40;15.98;;;;;;;1.84;64.73;102574.50;5110667;28;20447;-50
2023/01/28 12:01:19;;;;;;;33.47;18.10;;;;;;;1.91;64.14;102570.75;5110209;28;20048;-51
2023/01/28 12:04:09;;;;;;;30.55;15.30;;;;;;;1.63;63.74;102563.84;5110698;28;20450;-50
2023/01/28 12:07:15;;;;;;;29.20;16.35;;;;;;;1.59;64.32;102569.25;5116100;28;20051;-50
2023/01/28 12:10:17;;;;;;;29.63;17.02;;;;;;;1.66;65.02;102568.97;5130792;27;20071;-51
2023/01/28 12:13:07;;;;;;;26.13;14.32;;;;;;;1.49;64.74;102573.91;5131048;27;20404;-51
2023/01/28 12:16:00;;;;;;;35.00;16.52;;;;;;;1.61;65.48;102562.19;5131335;27;20555;-51
2023/01/28 12:19:03;;;;;;;26.83;14.57;;;;;;;1.44;64.97;102554.91;5131041;27;20070;-52
2023/01/28 12:24:27;;;;;;;27.30;15.23;;;;;;;1.57;65.50;102564.06;5152254;27;20653;-52
2023/01/28 12:27:20;;;;;;;29.05;15.80;;;;;;;1.73;64.87;102554.78;5140201;27;20397;-52
2023/01/28 12:30:12;;;;;;;25.13;14.43;;;;;;;1.76;65.02;102545.97;5152280;27;20372;-51
2023/01/28 12:32:56;;;;;;;26.17;14.40;;;;;;;1.66;64.29;102545.44;5152018;27;20520;-51
2023/01/28 12:35:34;;;;;;;23.95;14.75;;;;;;;1.64;64.56;102544.63;5152419;27;20043;-52